sensor_id;sensor_type;location;lat;lon;timestamp;temperature;humidity
56044;DHT22;41912;51.022;3.664;2023-08-06T00:00:19;17.70;99.90
56044;DHT22;41912;51.022;3.664;2023-08-06T00:02:45;17.70;99.90
56044;DHT22;41912;51.022;3.664;2023-08-06T00:05:11;17.70;99.90
56044;DHT22;41912;51.022;3.664;2023-08-06T00:07:36;17.70;99.90
56044;DHT22;41912;51.022;3.664;2023-08-06T00:10:02;17.70;99.90
56044;DHT22;41912;51.022;3.664;2023-08-06T00:12:29;17.70;99.90
56044;DHT22;41912;51.022;3.664;2023-08-06T00:14:54;17.70;99.90
56044;DHT22;41912;51.022;3.664;2023-08-06T00:17:20;17.70;99.90
56044;DHT22;41912;51.022;3.664;2023-08-06T00:19:46;17.70;99.90
56044;DHT22;41912;51.022;3.664;2023-08-06T00:22:11;17.70;99.90
56044;DHT22;41912;51.022;3.664;2023-08-06T00:24:37;17.70;99.90
56044;DHT22;41912;51.022;3.664;2023-08-06T00:27:03;17.70;99.90
56044;DHT22;41912;51.022;3.664;2023-08-06T00:29:28;17.70;99.90
56044;DHT22;41912;51.022;3.664;2023-08-06T00:31:54;17.70;99.90
56044;DHT22;41912;51.022;3.664;2023-08-06T00:34:20;17.70;99.90
56044;DHT22;41912;51.022;3.664;2023-08-06T00:36:45;17.70;99.90
56044;DHT22;41912;51.022;3.664;2023-08-06T00:39:11;17.70;99.90
56044;DHT22;41912;51.022;3.664;2023-08-06T00:41:37;17.70;99.90
56044;DHT22;41912;51.022;3.664;2023-08-06T00:44:03;17.70;99.90
56044;DHT22;41912;51.022;3.664;2023-08-06T00:46:29;17.70;99.90
56044;DHT22;41912;51.022;3.664;2023-08-06T00:48:55;17.70;99.90
56044;DHT22;41912;51.022;3.664;2023-08-06T00:51:22;17.70;99.90
56044;DHT22;41912;51.022;3.664;2023-08-06T00:53:49;17.70;99.90
56044;DHT22;41912;51.022;3.664;2023-08-06T00:56:15;17.70;99.90
56044;DHT22;41912;51.022;3.664;2023-08-06T00:58:41;17.60;99.90
56044;DHT22;41912;51.022;3.664;2023-08-06T01:01:07;17.60;99.90
56044;DHT22;41912;51.022;3.664;2023-08-06T01:03:33;17.60;99.90
56044;DHT22;41912;51.022;3.664;2023-08-06T01:05:59;17.60;99.90
56044;DHT22;41912;51.022;3.664;2023-08-06T01:14:18;17.60;99.90
56044;DHT22;41912;51.022;3.664;2023-08-06T01:16:48;17.50;99.90
56044;DHT22;41912;51.022;3.664;2023-08-06T01:19:19;17.50;99.90
56044;DHT22;41912;51.022;3.664;2023-08-06T01:21:45;17.50;99.90
56044;DHT22;41912;51.022;3.664;2023-08-06T01:24:11;17.40;99.90
56044;DHT22;41912;51.022;3.664;2023-08-06T01:27:11;17.40;99.90
56044;DHT22;41912;51.022;3.664;2023-08-06T01:29:34;17.40;99.90
56044;DHT22;41912;51.022;3.664;2023-08-06T01:32:01;17.40;99.90
56044;DHT22;41912;51.022;3.664;2023-08-06T01:34:31;17.40;99.90
56044;DHT22;41912;51.022;3.664;2023-08-06T01:36:59;17.30;99.90
56044;DHT22;41912;51.022;3.664;2023-08-06T01:39:25;17.30;99.90
56044;DHT22;41912;51.022;3.664;2023-08-06T01:41:50;17.30;99.90
56044;DHT22;41912;51.022;3.664;2023-08-06T01:44:16;17.30;99.90
56044;DHT22;41912;51.022;3.664;2023-08-06T01:46:42;17.30;99.90
56044;DHT22;41912;51.022;3.664;2023-08-06T01:49:08;17.30;99.90
56044;DHT22;41912;51.022;3.664;2023-08-06T01:51:33;17.40;99.90
56044;DHT22;41912;51.022;3.664;2023-08-06T01:53:59;17.40;99.90
56044;DHT22;41912;51.022;3.664;2023-08-06T01:56:24;17.40;99.90
56044;DHT22;41912;51.022;3.664;2023-08-06T01:58:50;17.40;99.90
56044;DHT22;41912;51.022;3.664;2023-08-06T02:01:16;17.40;99.90
56044;DHT22;41912;51.022;3.664;2023-08-06T02:03:41;17.30;99.90
56044;DHT22;41912;51.022;3.664;2023-08-06T02:06:07;17.40;99.90
56044;DHT22;41912;51.022;3.664;2023-08-06T02:08:33;17.30;99.90
56044;DHT22;41912;51.022;3.664;2023-08-06T02:10:58;17.30;99.90
56044;DHT22;41912;51.022;3.664;2023-08-06T02:13:25;17.30;99.90
56044;DHT22;41912;51.022;3.664;2023-08-06T02:15:50;17.30;99.90
56044;DHT22;41912;51.022;3.664;2023-08-06T02:18:16;17.30;99.90
56044;DHT22;41912;51.022;3.664;2023-08-06T02:20:42;17.20;99.90
56044;DHT22;41912;51.022;3.664;2023-08-06T02:23:08;17.20;99.90
56044;DHT22;41912;51.022;3.664;2023-08-06T02:25:34;17.20;99.90
56044;DHT22;41912;51.022;3.664;2023-08-06T02:28:00;17.10;99.90
56044;DHT22;41912;51.022;3.664;2023-08-06T02:30:26;17.00;99.90
56044;DHT22;41912;51.022;3.664;2023-08-06T02:32:51;17.10;99.90
56044;DHT22;41912;51.022;3.664;2023-08-06T02:35:17;17.00;99.90
56044;DHT22;41912;51.022;3.664;2023-08-06T02:37:43;16.90;99.90
56044;DHT22;41912;51.022;3.664;2023-08-06T02:40:08;16.90;99.90
56044;DHT22;41912;51.022;3.664;2023-08-06T02:42:34;16.90;99.90
56044;DHT22;41912;51.022;3.664;2023-08-06T02:45:00;16.90;99.90
56044;DHT22;41912;51.022;3.664;2023-08-06T02:47:25;16.80;99.90
56044;DHT22;41912;51.022;3.664;2023-08-06T02:49:51;16.80;99.90
56044;DHT22;41912;51.022;3.664;2023-08-06T02:52:17;16.70;99.90
56044;DHT22;41912;51.022;3.664;2023-08-06T02:54:42;16.70;99.90
56044;DHT22;41912;51.022;3.664;2023-08-06T02:57:08;16.60;99.90
56044;DHT22;41912;51.022;3.664;2023-08-06T02:59:33;16.60;99.90
56044;DHT22;41912;51.022;3.664;2023-08-06T03:01:59;16.50;99.90
56044;DHT22;41912;51.022;3.664;2023-08-06T03:04:25;16.70;99.90
56044;DHT22;41912;51.022;3.664;2023-08-06T03:06:50;16.50;99.90
56044;DHT22;41912;51.022;3.664;2023-08-06T03:09:17;16.60;99.90
56044;DHT22;41912;51.022;3.664;2023-08-06T03:11:43;16.60;99.90
56044;DHT22;41912;51.022;3.664;2023-08-06T03:14:08;16.60;99.90
56044;DHT22;41912;51.022;3.664;2023-08-06T03:16:34;16.60;99.90
56044;DHT22;41912;51.022;3.664;2023-08-06T03:19:00;16.60;99.90
56044;DHT22;41912;51.022;3.664;2023-08-06T03:21:26;16.60;99.90
56044;DHT22;41912;51.022;3.664;2023-08-06T03:23:52;16.60;99.90
56044;DHT22;41912;51.022;3.664;2023-08-06T03:26:17;16.60;99.90
56044;DHT22;41912;51.022;3.664;2023-08-06T03:28:43;16.60;99.90
56044;DHT22;41912;51.022;3.664;2023-08-06T03:31:09;16.60;99.90
56044;DHT22;41912;51.022;3.664;2023-08-06T03:33:35;16.60;99.90
56044;DHT22;41912;51.022;3.664;2023-08-06T03:36:00;16.60;99.90
56044;DHT22;41912;51.022;3.664;2023-08-06T03:38:26;16.60;99.90
56044;DHT22;41912;51.022;3.664;2023-08-06T03:40:53;16.60;99.90
56044;DHT22;41912;51.022;3.664;2023-08-06T03:43:18;16.60;99.90
56044;DHT22;41912;51.022;3.664;2023-08-06T03:45:44;16.60;99.90
56044;DHT22;41912;51.022;3.664;2023-08-06T03:48:10;16.50;99.90
56044;DHT22;41912;51.022;3.664;2023-08-06T03:50:35;16.50;99.90
56044;DHT22;41912;51.022;3.664;2023-08-06T03:53:01;16.50;99.90
56044;DHT22;41912;51.022;3.664;2023-08-06T03:55:27;16.50;99.90
56044;DHT22;41912;51.022;3.664;2023-08-06T03:57:53;16.60;99.90
56044;DHT22;41912;51.022;3.664;2023-08-06T04:00:18;16.60;99.90
56044;DHT22;41912;51.022;3.664;2023-08-06T04:02:44;16.50;99.90
56044;DHT22;41912;51.022;3.664;2023-08-06T04:05:10;16.50;99.90
56044;DHT22;41912;51.022;3.664;2023-08-06T04:07:36;16.50;99.90
56044;DHT22;41912;51.022;3.664;2023-08-06T04:10:03;16.40;99.90
56044;DHT22;41912;51.022;3.664;2023-08-06T04:12:29;16.50;99.90
56044;DHT22;41912;51.022;3.664;2023-08-06T04:14:58;16.50;99.90
56044;DHT22;41912;51.022;3.664;2023-08-06T04:17:24;16.40;99.90
56044;DHT22;41912;51.022;3.664;2023-08-06T04:19:53;16.40;99.90
56044;DHT22;41912;51.022;3.664;2023-08-06T04:22:20;16.50;99.90
56044;DHT22;41912;51.022;3.664;2023-08-06T04:24:46;16.50;99.90
56044;DHT22;41912;51.022;3.664;2023-08-06T04:27:12;16.50;99.90
56044;DHT22;41912;51.022;3.664;2023-08-06T04:29:38;16.40;99.90
56044;DHT22;41912;51.022;3.664;2023-08-06T04:32:06;16.50;99.90
56044;DHT22;41912;51.022;3.664;2023-08-06T04:34:33;16.50;99.90
56044;DHT22;41912;51.022;3.664;2023-08-06T04:36:59;16.50;99.90
56044;DHT22;41912;51.022;3.664;2023-08-06T04:39:25;16.50;99.90
56044;DHT22;41912;51.022;3.664;2023-08-06T04:41:51;16.50;99.90
56044;DHT22;41912;51.022;3.664;2023-08-06T04:44:16;16.50;99.90
56044;DHT22;41912;51.022;3.664;2023-08-06T04:46:42;16.50;99.90
56044;DHT22;41912;51.022;3.664;2023-08-06T04:49:07;16.50;99.90
56044;DHT22;41912;51.022;3.664;2023-08-06T04:51:33;16.50;99.90
56044;DHT22;41912;51.022;3.664;2023-08-06T04:53:59;16.50;99.90
56044;DHT22;41912;51.022;3.664;2023-08-06T04:56:24;16.50;99.90
56044;DHT22;41912;51.022;3.664;2023-08-06T04:58:50;16.60;99.90
56044;DHT22;41912;51.022;3.664;2023-08-06T05:01:16;16.50;99.90
56044;DHT22;41912;51.022;3.664;2023-08-06T05:03:41;16.50;99.90
56044;DHT22;41912;51.022;3.664;2023-08-06T05:06:07;16.60;99.90
56044;DHT22;41912;51.022;3.664;2023-08-06T05:08:36;16.60;99.90
56044;DHT22;41912;51.022;3.664;2023-08-06T05:11:01;16.60;99.90
56044;DHT22;41912;51.022;3.664;2023-08-06T05:13:27;16.60;99.90
56044;DHT22;41912;51.022;3.664;2023-08-06T05:15:56;16.60;99.90
56044;DHT22;41912;51.022;3.664;2023-08-06T05:18:22;16.50;99.90
56044;DHT22;41912;51.022;3.664;2023-08-06T05:20:47;16.60;99.90
56044;DHT22;41912;51.022;3.664;2023-08-06T05:23:13;16.60;99.90
56044;DHT22;41912;51.022;3.664;2023-08-06T05:25:39;16.60;99.90
56044;DHT22;41912;51.022;3.664;2023-08-06T05:28:04;16.50;99.90
56044;DHT22;41912;51.022;3.664;2023-08-06T05:30:30;16.50;99.90
56044;DHT22;41912;51.022;3.664;2023-08-06T05:32:56;16.60;99.90
56044;DHT22;41912;51.022;3.664;2023-08-06T05:35:22;16.60;99.90
56044;DHT22;41912;51.022;3.664;2023-08-06T05:37:49;16.60;99.90
56044;DHT22;41912;51.022;3.664;2023-08-06T05:40:15;16.60;99.90
56044;DHT22;41912;51.022;3.664;2023-08-06T05:42:41;16.60;99.90
56044;DHT22;41912;51.022;3.664;2023-08-06T05:45:07;16.60;99.90
56044;DHT22;41912;51.022;3.664;2023-08-06T05:47:33;16.70;99.90
56044;DHT22;41912;51.022;3.664;2023-08-06T05:49:58;16.60;99.90
56044;DHT22;41912;51.022;3.664;2023-08-06T05:52:24;16.60;99.90
56044;DHT22;41912;51.022;3.664;2023-08-06T05:54:49;16.60;99.90
56044;DHT22;41912;51.022;3.664;2023-08-06T05:57:16;16.60;99.90
56044;DHT22;41912;51.022;3.664;2023-08-06T05:59:41;16.60;99.90
56044;DHT22;41912;51.022;3.664;2023-08-06T06:02:07;16.60;99.90
56044;DHT22;41912;51.022;3.664;2023-08-06T06:04:33;16.60;99.90
56044;DHT22;41912;51.022;3.664;2023-08-06T06:06:59;16.50;99.90
56044;DHT22;41912;51.022;3.664;2023-08-06T06:09:24;16.40;99.90
56044;DHT22;41912;51.022;3.664;2023-08-06T06:11:50;16.50;99.90
56044;DHT22;41912;51.022;3.664;2023-08-06T06:14:19;16.50;99.90
56044;DHT22;41912;51.022;3.664;2023-08-06T06:16:45;16.50;99.90
56044;DHT22;41912;51.022;3.664;2023-08-06T06:19:11;16.50;99.90
56044;DHT22;41912;51.022;3.664;2023-08-06T06:21:37;16.50;99.90
56044;DHT22;41912;51.022;3.664;2023-08-06T06:24:04;16.50;99.90
56044;DHT22;41912;51.022;3.664;2023-08-06T06:26:31;16.50;99.90
56044;DHT22;41912;51.022;3.664;2023-08-06T06:28:57;16.50;99.90
56044;DHT22;41912;51.022;3.664;2023-08-06T06:31:23;16.40;99.90
56044;DHT22;41912;51.022;3.664;2023-08-06T06:33:49;16.50;99.90
56044;DHT22;41912;51.022;3.664;2023-08-06T06:36:14;16.50;99.90
56044;DHT22;41912;51.022;3.664;2023-08-06T06:38:40;16.50;99.90
56044;DHT22;41912;51.022;3.664;2023-08-06T06:41:05;16.50;99.90
56044;DHT22;41912;51.022;3.664;2023-08-06T06:43:32;16.60;99.90
56044;DHT22;41912;51.022;3.664;2023-08-06T06:45:59;16.50;99.90
56044;DHT22;41912;51.022;3.664;2023-08-06T06:48:30;16.60;99.90
56044;DHT22;41912;51.022;3.664;2023-08-06T06:50:56;16.60;99.90
56044;DHT22;41912;51.022;3.664;2023-08-06T06:53:22;16.60;99.90
56044;DHT22;41912;51.022;3.664;2023-08-06T06:56:01;16.60;99.90
56044;DHT22;41912;51.022;3.664;2023-08-06T06:58:27;16.60;99.90
56044;DHT22;41912;51.022;3.664;2023-08-06T07:00:53;16.60;99.90
56044;DHT22;41912;51.022;3.664;2023-08-06T07:03:20;16.50;99.90
56044;DHT22;41912;51.022;3.664;2023-08-06T07:05:45;16.60;99.90
56044;DHT22;41912;51.022;3.664;2023-08-06T07:08:11;16.60;99.90
56044;DHT22;41912;51.022;3.664;2023-08-06T07:10:37;16.60;99.90
56044;DHT22;41912;51.022;3.664;2023-08-06T07:13:03;16.60;99.90
56044;DHT22;41912;51.022;3.664;2023-08-06T07:15:29;16.60;99.90
56044;DHT22;41912;51.022;3.664;2023-08-06T07:17:54;16.60;99.90
56044;DHT22;41912;51.022;3.664;2023-08-06T07:20:20;16.70;99.90
56044;DHT22;41912;51.022;3.664;2023-08-06T07:22:46;16.70;99.90
56044;DHT22;41912;51.022;3.664;2023-08-06T07:25:11;16.60;99.90
56044;DHT22;41912;51.022;3.664;2023-08-06T07:27:37;16.60;99.90
56044;DHT22;41912;51.022;3.664;2023-08-06T07:30:03;16.60;99.90
56044;DHT22;41912;51.022;3.664;2023-08-06T07:32:31;16.50;99.90
56044;DHT22;41912;51.022;3.664;2023-08-06T07:34:57;16.50;99.90
56044;DHT22;41912;51.022;3.664;2023-08-06T07:37:28;16.50;99.90
56044;DHT22;41912;51.022;3.664;2023-08-06T07:39:57;16.50;99.90
56044;DHT22;41912;51.022;3.664;2023-08-06T07:42:23;16.60;99.90
56044;DHT22;41912;51.022;3.664;2023-08-06T07:44:53;16.60;99.90
56044;DHT22;41912;51.022;3.664;2023-08-06T07:47:19;16.60;99.90
56044;DHT22;41912;51.022;3.664;2023-08-06T07:49:45;16.60;99.90
56044;DHT22;41912;51.022;3.664;2023-08-06T07:52:11;16.60;99.90
56044;DHT22;41912;51.022;3.664;2023-08-06T07:54:37;16.60;99.90
56044;DHT22;41912;51.022;3.664;2023-08-06T07:57:02;16.70;99.90
56044;DHT22;41912;51.022;3.664;2023-08-06T07:59:28;16.70;99.90
56044;DHT22;41912;51.022;3.664;2023-08-06T08:01:54;16.70;99.90
56044;DHT22;41912;51.022;3.664;2023-08-06T08:04:19;16.70;99.90
56044;DHT22;41912;51.022;3.664;2023-08-06T08:06:46;16.70;99.90
56044;DHT22;41912;51.022;3.664;2023-08-06T08:09:12;16.70;99.90
56044;DHT22;41912;51.022;3.664;2023-08-06T08:11:39;16.80;99.90
56044;DHT22;41912;51.022;3.664;2023-08-06T08:14:05;16.70;99.90
56044;DHT22;41912;51.022;3.664;2023-08-06T08:16:30;16.80;99.90
56044;DHT22;41912;51.022;3.664;2023-08-06T08:18:56;16.80;99.90
56044;DHT22;41912;51.022;3.664;2023-08-06T08:21:22;16.80;99.90
56044;DHT22;41912;51.022;3.664;2023-08-06T08:23:49;16.80;99.90
56044;DHT22;41912;51.022;3.664;2023-08-06T08:26:15;16.80;99.90
56044;DHT22;41912;51.022;3.664;2023-08-06T08:28:41;16.80;99.90
56044;DHT22;41912;51.022;3.664;2023-08-06T08:31:10;16.80;99.90
56044;DHT22;41912;51.022;3.664;2023-08-06T08:33:39;16.70;99.90
56044;DHT22;41912;51.022;3.664;2023-08-06T08:36:05;16.70;99.90
56044;DHT22;41912;51.022;3.664;2023-08-06T08:38:30;16.80;99.90
56044;DHT22;41912;51.022;3.664;2023-08-06T08:40:56;16.70;99.90
56044;DHT22;41912;51.022;3.664;2023-08-06T08:43:22;16.80;99.90
56044;DHT22;41912;51.022;3.664;2023-08-06T08:45:52;16.70;99.90
56044;DHT22;41912;51.022;3.664;2023-08-06T08:48:18;16.70;99.90
56044;DHT22;41912;51.022;3.664;2023-08-06T08:50:46;16.70;99.90
56044;DHT22;41912;51.022;3.664;2023-08-06T08:53:14;16.60;99.90
56044;DHT22;41912;51.022;3.664;2023-08-06T08:55:41;16.60;99.90
56044;DHT22;41912;51.022;3.664;2023-08-06T08:58:07;16.60;99.90
56044;DHT22;41912;51.022;3.664;2023-08-06T09:00:34;16.60;99.90
56044;DHT22;41912;51.022;3.664;2023-08-06T09:03:00;16.70;99.90
56044;DHT22;41912;51.022;3.664;2023-08-06T09:05:29;16.60;99.90
56044;DHT22;41912;51.022;3.664;2023-08-06T09:08:03;16.70;99.90
56044;DHT22;41912;51.022;3.664;2023-08-06T09:10:29;16.60;99.90
56044;DHT22;41912;51.022;3.664;2023-08-06T09:12:56;16.50;99.90
56044;DHT22;41912;51.022;3.664;2023-08-06T09:15:27;16.60;99.90
56044;DHT22;41912;51.022;3.664;2023-08-06T09:17:53;16.60;99.90
56044;DHT22;41912;51.022;3.664;2023-08-06T09:20:19;16.50;99.90
56044;DHT22;41912;51.022;3.664;2023-08-06T09:22:45;16.60;99.90
56044;DHT22;41912;51.022;3.664;2023-08-06T09:25:21;16.60;99.90
56044;DHT22;41912;51.022;3.664;2023-08-06T09:27:50;16.60;99.90
56044;DHT22;41912;51.022;3.664;2023-08-06T09:30:32;16.60;99.90
56044;DHT22;41912;51.022;3.664;2023-08-06T09:32:58;16.70;99.90
56044;DHT22;41912;51.022;3.664;2023-08-06T09:35:23;16.70;99.90
56044;DHT22;41912;51.022;3.664;2023-08-06T09:37:49;16.70;99.90
56044;DHT22;41912;51.022;3.664;2023-08-06T09:40:28;16.70;99.90
56044;DHT22;41912;51.022;3.664;2023-08-06T09:42:55;16.70;99.90
56044;DHT22;41912;51.022;3.664;2023-08-06T09:45:21;16.90;99.90
56044;DHT22;41912;51.022;3.664;2023-08-06T09:47:56;16.70;99.90
56044;DHT22;41912;51.022;3.664;2023-08-06T09:50:21;16.70;99.90
56044;DHT22;41912;51.022;3.664;2023-08-06T09:52:48;16.60;99.90
56044;DHT22;41912;51.022;3.664;2023-08-06T09:55:15;16.60;99.90
56044;DHT22;41912;51.022;3.664;2023-08-06T09:57:41;16.60;99.90
56044;DHT22;41912;51.022;3.664;2023-08-06T10:00:08;16.60;99.90
56044;DHT22;41912;51.022;3.664;2023-08-06T10:02:37;16.60;99.90
56044;DHT22;41912;51.022;3.664;2023-08-06T10:05:04;16.70;99.90
56044;DHT22;41912;51.022;3.664;2023-08-06T10:07:30;16.80;99.90
56044;DHT22;41912;51.022;3.664;2023-08-06T10:09:56;16.90;99.90
56044;DHT22;41912;51.022;3.664;2023-08-06T10:12:23;16.90;99.90
56044;DHT22;41912;51.022;3.664;2023-08-06T10:14:52;17.00;99.90
56044;DHT22;41912;51.022;3.664;2023-08-06T10:17:22;17.00;99.90
56044;DHT22;41912;51.022;3.664;2023-08-06T10:19:50;17.00;99.90
56044;DHT22;41912;51.022;3.664;2023-08-06T10:22:17;17.10;99.90
56044;DHT22;41912;51.022;3.664;2023-08-06T10:27:11;17.10;99.90
56044;DHT22;41912;51.022;3.664;2023-08-06T10:29:37;17.20;99.90
56044;DHT22;41912;51.022;3.664;2023-08-06T10:32:03;17.10;99.90
56044;DHT22;41912;51.022;3.664;2023-08-06T10:34:58;17.20;99.90
56044;DHT22;41912;51.022;3.664;2023-08-06T10:37:34;17.20;99.90
56044;DHT22;41912;51.022;3.664;2023-08-06T10:40:00;17.20;99.90
56044;DHT22;41912;51.022;3.664;2023-08-06T10:42:29;17.10;99.90
56044;DHT22;41912;51.022;3.664;2023-08-06T10:45:15;17.20;99.90
56044;DHT22;41912;51.022;3.664;2023-08-06T10:47:41;17.20;99.90
56044;DHT22;41912;51.022;3.664;2023-08-06T10:50:10;17.20;99.90
56044;DHT22;41912;51.022;3.664;2023-08-06T10:52:36;17.20;99.90
56044;DHT22;41912;51.022;3.664;2023-08-06T10:55:01;17.20;99.90
56044;DHT22;41912;51.022;3.664;2023-08-06T10:57:27;17.20;99.90
56044;DHT22;41912;51.022;3.664;2023-08-06T10:59:53;17.30;99.90
56044;DHT22;41912;51.022;3.664;2023-08-06T11:02:18;17.20;99.90
56044;DHT22;41912;51.022;3.664;2023-08-06T11:04:44;17.20;99.90
56044;DHT22;41912;51.022;3.664;2023-08-06T11:07:10;17.20;99.90
56044;DHT22;41912;51.022;3.664;2023-08-06T11:09:36;17.20;99.90
56044;DHT22;41912;51.022;3.664;2023-08-06T11:12:02;17.30;99.90
56044;DHT22;41912;51.022;3.664;2023-08-06T11:14:30;17.20;99.90
56044;DHT22;41912;51.022;3.664;2023-08-06T11:16:56;17.20;99.90
56044;DHT22;41912;51.022;3.664;2023-08-06T11:19:22;17.20;99.90
56044;DHT22;41912;51.022;3.664;2023-08-06T11:21:51;17.20;99.90
56044;DHT22;41912;51.022;3.664;2023-08-06T11:24:17;17.20;99.90
56044;DHT22;41912;51.022;3.664;2023-08-06T11:26:43;17.20;99.90
56044;DHT22;41912;51.022;3.664;2023-08-06T11:29:10;17.30;99.90
56044;DHT22;41912;51.022;3.664;2023-08-06T11:31:36;17.30;99.90
56044;DHT22;41912;51.022;3.664;2023-08-06T11:34:02;17.30;99.90
56044;DHT22;41912;51.022;3.664;2023-08-06T11:36:31;17.30;99.90
56044;DHT22;41912;51.022;3.664;2023-08-06T11:38:58;17.40;99.90
56044;DHT22;41912;51.022;3.664;2023-08-06T11:41:23;17.40;99.90
56044;DHT22;41912;51.022;3.664;2023-08-06T11:43:49;17.40;99.90
56044;DHT22;41912;51.022;3.664;2023-08-06T11:46:15;17.50;99.90
56044;DHT22;41912;51.022;3.664;2023-08-06T11:48:54;17.60;99.90
56044;DHT22;41912;51.022;3.664;2023-08-06T11:51:24;17.60;99.90
56044;DHT22;41912;51.022;3.664;2023-08-06T11:53:57;17.60;99.90
56044;DHT22;41912;51.022;3.664;2023-08-06T11:56:24;17.60;99.90
56044;DHT22;41912;51.022;3.664;2023-08-06T11:58:51;17.40;99.90
56044;DHT22;41912;51.022;3.664;2023-08-06T12:01:17;17.40;99.90
56044;DHT22;41912;51.022;3.664;2023-08-06T12:03:43;17.40;99.90
56044;DHT22;41912;51.022;3.664;2023-08-06T12:06:08;17.40;99.90
56044;DHT22;41912;51.022;3.664;2023-08-06T12:08:34;17.30;99.90
56044;DHT22;41912;51.022;3.664;2023-08-06T12:10:59;17.30;99.90
56044;DHT22;41912;51.022;3.664;2023-08-06T12:13:25;17.30;99.90
56044;DHT22;41912;51.022;3.664;2023-08-06T12:15:51;17.40;99.90
56044;DHT22;41912;51.022;3.664;2023-08-06T12:18:19;17.40;99.90
56044;DHT22;41912;51.022;3.664;2023-08-06T12:20:44;17.50;99.90
56044;DHT22;41912;51.022;3.664;2023-08-06T12:23:10;17.50;99.90
56044;DHT22;41912;51.022;3.664;2023-08-06T12:25:38;17.50;99.90
56044;DHT22;41912;51.022;3.664;2023-08-06T12:28:04;17.50;99.90
56044;DHT22;41912;51.022;3.664;2023-08-06T12:30:31;17.50;99.90
56044;DHT22;41912;51.022;3.664;2023-08-06T12:32:56;17.60;99.90
56044;DHT22;41912;51.022;3.664;2023-08-06T12:35:22;17.70;99.90
56044;DHT22;41912;51.022;3.664;2023-08-06T12:37:48;17.60;99.90
56044;DHT22;41912;51.022;3.664;2023-08-06T12:40:16;17.60;99.90
56044;DHT22;41912;51.022;3.664;2023-08-06T12:42:42;17.50;99.90
56044;DHT22;41912;51.022;3.664;2023-08-06T12:45:08;17.50;99.90
56044;DHT22;41912;51.022;3.664;2023-08-06T12:47:33;17.50;99.90
56044;DHT22;41912;51.022;3.664;2023-08-06T12:49:59;17.70;99.90
56044;DHT22;41912;51.022;3.664;2023-08-06T12:52:24;17.60;99.90
56044;DHT22;41912;51.022;3.664;2023-08-06T12:54:50;17.60;99.90
56044;DHT22;41912;51.022;3.664;2023-08-06T12:57:16;17.70;99.90
56044;DHT22;41912;51.022;3.664;2023-08-06T12:59:42;17.80;99.90
56044;DHT22;41912;51.022;3.664;2023-08-06T13:02:08;17.90;99.90
56044;DHT22;41912;51.022;3.664;2023-08-06T13:04:33;17.90;99.90
56044;DHT22;41912;51.022;3.664;2023-08-06T13:06:59;18.00;99.90
56044;DHT22;41912;51.022;3.664;2023-08-06T13:09:25;18.10;99.90
56044;DHT22;41912;51.022;3.664;2023-08-06T13:11:52;18.00;99.90
56044;DHT22;41912;51.022;3.664;2023-08-06T13:14:18;17.90;99.90
56044;DHT22;41912;51.022;3.664;2023-08-06T13:16:44;17.90;99.90
56044;DHT22;41912;51.022;3.664;2023-08-06T13:19:10;17.90;99.90
56044;DHT22;41912;51.022;3.664;2023-08-06T13:21:59;17.80;99.90
56044;DHT22;41912;51.022;3.664;2023-08-06T13:24:27;17.80;99.90
56044;DHT22;41912;51.022;3.664;2023-08-06T13:26:52;17.80;99.90
56044;DHT22;41912;51.022;3.664;2023-08-06T13:29:18;17.80;99.90
56044;DHT22;41912;51.022;3.664;2023-08-06T13:31:44;17.80;99.90
56044;DHT22;41912;51.022;3.664;2023-08-06T13:34:09;17.80;99.90
56044;DHT22;41912;51.022;3.664;2023-08-06T13:36:35;17.80;99.90
56044;DHT22;41912;51.022;3.664;2023-08-06T13:39:01;17.80;99.90
56044;DHT22;41912;51.022;3.664;2023-08-06T13:41:26;17.70;99.90
56044;DHT22;41912;51.022;3.664;2023-08-06T13:43:52;17.80;99.90
56044;DHT22;41912;51.022;3.664;2023-08-06T13:46:18;17.80;99.90
56044;DHT22;41912;51.022;3.664;2023-08-06T13:48:46;17.80;99.90
56044;DHT22;41912;51.022;3.664;2023-08-06T13:51:12;17.80;99.90
56044;DHT22;41912;51.022;3.664;2023-08-06T13:53:39;17.80;99.90
56044;DHT22;41912;51.022;3.664;2023-08-06T13:56:06;17.70;99.90
56044;DHT22;41912;51.022;3.664;2023-08-06T13:58:32;17.60;99.90
56044;DHT22;41912;51.022;3.664;2023-08-06T14:00:58;17.60;99.90
56044;DHT22;41912;51.022;3.664;2023-08-06T14:03:23;17.70;99.90
56044;DHT22;41912;51.022;3.664;2023-08-06T14:05:49;17.60;99.90
56044;DHT22;41912;51.022;3.664;2023-08-06T14:08:15;17.80;99.90
56044;DHT22;41912;51.022;3.664;2023-08-06T14:10:43;17.90;99.90
56044;DHT22;41912;51.022;3.664;2023-08-06T14:13:09;17.90;99.90
56044;DHT22;41912;51.022;3.664;2023-08-06T14:15:35;18.00;99.90
56044;DHT22;41912;51.022;3.664;2023-08-06T14:18:01;18.10;99.90
56044;DHT22;41912;51.022;3.664;2023-08-06T14:20:28;18.30;99.90
56044;DHT22;41912;51.022;3.664;2023-08-06T14:22:53;18.30;99.90
56044;DHT22;41912;51.022;3.664;2023-08-06T14:25:19;18.50;99.90
56044;DHT22;41912;51.022;3.664;2023-08-06T14:27:45;18.70;99.90
56044;DHT22;41912;51.022;3.664;2023-08-06T14:30:11;18.70;99.90
56044;DHT22;41912;51.022;3.664;2023-08-06T14:32:36;18.80;99.90
56044;DHT22;41912;51.022;3.664;2023-08-06T14:35:02;18.80;99.90
56044;DHT22;41912;51.022;3.664;2023-08-06T14:37:27;18.80;99.90
56044;DHT22;41912;51.022;3.664;2023-08-06T14:39:53;18.90;99.90
56044;DHT22;41912;51.022;3.664;2023-08-06T14:42:19;18.90;99.90
56044;DHT22;41912;51.022;3.664;2023-08-06T14:44:44;18.90;99.90
56044;DHT22;41912;51.022;3.664;2023-08-06T14:47:10;18.90;99.80
56044;DHT22;41912;51.022;3.664;2023-08-06T14:49:36;18.80;99.90
56044;DHT22;41912;51.022;3.664;2023-08-06T14:52:03;18.70;99.90
56044;DHT22;41912;51.022;3.664;2023-08-06T14:54:29;18.60;99.90
56044;DHT22;41912;51.022;3.664;2023-08-06T14:56:54;18.70;99.90
56044;DHT22;41912;51.022;3.664;2023-08-06T14:59:20;18.70;99.90
56044;DHT22;41912;51.022;3.664;2023-08-06T15:01:46;18.80;99.90
56044;DHT22;41912;51.022;3.664;2023-08-06T15:04:11;18.90;99.90
56044;DHT22;41912;51.022;3.664;2023-08-06T15:06:37;19.10;99.90
56044;DHT22;41912;51.022;3.664;2023-08-06T15:09:02;19.20;99.90
56044;DHT22;41912;51.022;3.664;2023-08-06T15:11:28;19.20;99.90
56044;DHT22;41912;51.022;3.664;2023-08-06T15:13:54;19.20;99.90
56044;DHT22;41912;51.022;3.664;2023-08-06T15:16:19;19.20;99.90
56044;DHT22;41912;51.022;3.664;2023-08-06T15:18:45;19.30;99.90
56044;DHT22;41912;51.022;3.664;2023-08-06T15:21:11;19.30;99.90
56044;DHT22;41912;51.022;3.664;2023-08-06T15:23:36;19.30;99.90
56044;DHT22;41912;51.022;3.664;2023-08-06T15:26:02;19.40;99.90
56044;DHT22;41912;51.022;3.664;2023-08-06T15:28:28;19.40;99.90
56044;DHT22;41912;51.022;3.664;2023-08-06T15:30:54;19.40;99.90
56044;DHT22;41912;51.022;3.664;2023-08-06T15:33:20;19.40;99.90